createdAt,value
2018-05-03T00:00:11.224Z,4.87
2018-05-03T00:01:15.226Z,4.32
2018-05-03T00:02:17.725Z,4.85
2018-05-03T00:03:20.238Z,4.28
2018-05-03T00:04:22.755Z,4.30
2018-05-03T00:05:26.050Z,4.35
2018-05-03T00:06:28.545Z,4.15
2018-05-03T00:07:31.038Z,4.72
2018-05-03T00:08:33.528Z,4.70
2018-05-03T00:09:36.776Z,4.75
2018-05-03T00:10:39.316Z,4.35
2018-05-03T00:11:42.560Z,4.80
2018-05-03T00:12:45.051Z,5.32
2018-05-03T00:13:49.049Z,5.07
2018-05-03T00:14:51.561Z,4.82
2018-05-03T00:15:54.078Z,4.00
2018-05-03T00:16:56.577Z,5.03
2018-05-03T00:17:59.852Z,4.12
2018-05-03T00:19:03.157Z,5.00
2018-05-03T00:20:07.263Z,4.20
2018-05-03T00:21:10.678Z,4.55
2018-05-03T00:22:13.164Z,4.35
2018-05-03T00:23:15.654Z,4.50
2018-05-03T00:24:18.145Z,4.10
2018-05-03T00:25:22.177Z,4.95
2018-05-03T00:26:25.435Z,4.53
2018-05-03T00:27:27.940Z,5.40
2018-05-03T00:28:31.183Z,5.00
2018-05-03T00:29:33.681Z,4.95
2018-05-03T00:30:36.179Z,4.60
2018-05-03T00:31:38.673Z,4.72
2018-05-03T00:32:41.178Z,4.43
2018-05-03T00:33:43.656Z,5.10
2018-05-03T00:34:46.259Z,4.65
2018-05-03T00:35:48.746Z,4.53
2018-05-03T00:36:51.245Z,4.65
2018-05-03T00:37:53.747Z,5.28
2018-05-03T00:38:56.226Z,4.62
2018-05-03T00:39:59.468Z,5.07
2018-05-03T00:41:01.981Z,3.97
2018-05-03T00:42:05.239Z,4.43
2018-05-03T00:43:07.728Z,4.47
2018-05-03T00:44:10.218Z,4.72
2018-05-03T00:45:13.481Z,4.80
2018-05-03T00:46:15.984Z,5.18
2018-05-03T00:47:18.472Z,4.93
2018-05-03T00:48:20.953Z,5.07
2018-05-03T00:49:23.432Z,4.28
2018-05-03T00:50:25.943Z,4.43
2018-05-03T00:51:29.207Z,4.65
2018-05-03T00:52:31.696Z,5.12
2018-05-03T00:53:34.934Z,5.05
2018-05-03T00:54:48.301Z,4.62
2018-05-03T00:55:50.823Z,4.80
2018-05-03T00:56:53.323Z,4.90
2018-05-03T00:57:55.814Z,4.78
2018-05-03T00:58:59.057Z,4.37
2018-05-03T01:00:01.547Z,5.20
2018-05-03T01:01:04.031Z,4.82
2018-05-03T01:02:06.535Z,5.60
2018-05-03T01:03:09.021Z,4.47
2018-05-03T01:04:11.515Z,4.75
2018-05-03T01:05:14.018Z,5.55
2018-05-03T01:06:16.505Z,5.93
2018-05-03T01:07:19.763Z,4.95
2018-05-03T01:08:22.262Z,6.25
2018-05-03T01:09:25.520Z,5.12
2018-05-03T01:10:28.046Z,5.50
2018-05-03T01:11:30.535Z,5.43
2018-05-03T01:12:33.053Z,5.85
2018-05-03T01:13:36.298Z,5.37
2018-05-03T01:14:38.805Z,5.28
2018-05-03T01:15:42.064Z,5.85
2018-05-03T01:16:44.545Z,6.55
2018-05-03T01:17:47.031Z,5.78
2018-05-03T01:18:49.525Z,5.93
2018-05-03T01:19:52.829Z,5.95
2018-05-03T01:20:55.395Z,5.28
2018-05-03T01:21:57.869Z,4.95
2018-05-03T01:23:00.365Z,6.00
2018-05-03T01:24:02.851Z,6.50
2018-05-03T01:25:05.351Z,5.28
2018-05-03T01:26:08.613Z,5.70
2018-05-03T01:27:11.129Z,6.62
2018-05-03T01:28:13.632Z,7.03
2018-05-03T01:29:16.125Z,6.28
2018-05-03T01:30:18.642Z,5.50
2018-05-03T01:31:21.136Z,6.05
2018-05-03T01:32:23.662Z,5.82
2018-05-03T01:33:26.907Z,5.90
2018-05-03T01:34:29.396Z,6.22
2018-05-03T01:35:43.927Z,6.22
2018-05-03T01:36:46.425Z,6.30
2018-05-03T01:37:48.902Z,6.62
2018-05-03T01:38:52.178Z,5.85
2018-05-03T01:39:54.657Z,6.47
2018-05-03T01:40:57.162Z,6.10
2018-05-03T01:42:00.399Z,6.87
2018-05-03T01:43:02.869Z,5.78
2018-05-03T01:44:05.386Z,5.65
2018-05-03T01:45:07.893Z,5.93
2018-05-03T01:46:10.713Z,5.95
2018-05-03T01:47:13.199Z,6.00
2018-05-03T01:48:16.492Z,5.32
2018-05-03T01:49:18.997Z,5.90
2018-05-03T01:50:21.494Z,6.50
2018-05-03T01:51:23.979Z,6.47
2018-05-03T01:52:26.583Z,5.75
2018-05-03T01:53:29.079Z,6.28
2018-05-03T01:54:31.570Z,6.25
2018-05-03T01:55:34.056Z,6.45
2018-05-03T01:56:36.537Z,6.28
2018-05-03T01:57:39.805Z,6.85
2018-05-03T01:58:42.287Z,6.90
2018-05-03T01:59:45.555Z,6.10
2018-05-03T02:00:48.057Z,6.43
2018-05-03T02:01:51.309Z,6.65
2018-05-03T02:02:53.794Z,6.43
2018-05-03T02:03:56.282Z,6.85
2018-05-03T02:04:58.780Z,5.90
2018-05-03T02:06:01.293Z,6.35
2018-05-03T02:07:03.770Z,7.20
2018-05-03T02:08:06.261Z,7.75
2018-05-03T02:09:09.533Z,6.82
2018-05-03T02:10:13.551Z,7.10
2018-05-03T02:11:16.823Z,7.37
2018-05-03T02:12:19.322Z,7.60
2018-05-03T02:13:22.585Z,7.80
2018-05-03T02:14:25.075Z,7.47
2018-05-03T02:15:28.358Z,7.05
2018-05-03T02:16:31.639Z,6.85
2018-05-03T02:17:34.117Z,6.60
2018-05-03T02:18:37.380Z,7.40
2018-05-03T02:19:39.862Z,6.62
2018-05-03T02:20:42.403Z,7.20
2018-05-03T02:21:44.896Z,7.93
2018-05-03T02:22:47.369Z,6.90
2018-05-03T02:23:51.355Z,7.45
2018-05-03T02:24:53.851Z,5.90
2018-05-03T02:25:56.359Z,7.20
2018-05-03T02:26:58.859Z,6.72
2018-05-03T02:28:01.353Z,6.75
2018-05-03T02:29:03.863Z,6.80
2018-05-03T02:30:06.371Z,7.15
2018-05-03T02:31:08.865Z,6.75
2018-05-03T02:32:11.356Z,6.80
2018-05-03T02:33:14.606Z,6.30
2018-05-03T02:34:17.092Z,6.22
2018-05-03T02:35:19.595Z,6.35
2018-05-03T02:36:22.097Z,6.87
2018-05-03T02:37:24.606Z,6.40
2018-05-03T02:38:27.099Z,6.30
2018-05-03T02:39:30.346Z,6.35
2018-05-03T02:40:32.853Z,7.75
2018-05-03T02:41:36.097Z,5.97
2018-05-03T02:42:38.595Z,6.37
2018-05-03T02:43:41.068Z,6.22
2018-05-03T02:44:43.539Z,7.00
2018-05-03T02:45:46.036Z,6.03
2018-05-03T02:46:48.526Z,6.43
2018-05-03T02:47:51.027Z,6.55
2018-05-03T02:48:53.518Z,6.53
2018-05-03T02:49:55.996Z,6.87
2018-05-03T02:50:58.596Z,5.30
2018-05-03T02:52:01.081Z,6.60
2018-05-03T02:53:03.606Z,6.00
2018-05-03T02:54:06.106Z,6.03
2018-05-03T02:55:08.619Z,6.80
2018-05-03T02:56:11.236Z,6.75
2018-05-03T02:57:26.421Z,5.95
2018-05-03T02:58:40.851Z,6.57
2018-05-03T02:59:55.833Z,6.15
2018-05-03T03:03:02.832Z,6.03
2018-05-03T03:04:22.945Z,6.50
2018-05-03T03:05:43.341Z,6.00
2018-05-03T03:07:03.632Z,5.45
2018-05-03T03:08:23.952Z,6.32
2018-05-03T03:13:35.105Z,6.50
2018-05-03T03:14:55.228Z,6.00
2018-05-03T03:16:15.412Z,6.93
2018-05-03T03:17:35.685Z,6.32
2018-05-03T03:18:56.030Z,5.72
2018-05-03T03:22:19.864Z,5.87
2018-05-03T03:23:39.987Z,6.30
2018-05-03T03:24:54.134Z,6.62
2018-05-03T03:26:15.849Z,5.72
2018-05-03T03:27:36.712Z,5.95
2018-05-03T03:30:44.319Z,7.12
2018-05-03T03:32:04.522Z,6.55
2018-05-03T03:33:18.808Z,6.62
2018-05-03T03:34:23.240Z,7.10
2018-05-03T03:37:32.616Z,6.15
2018-05-03T03:38:47.105Z,6.68
2018-05-03T03:40:07.484Z,7.18
2018-05-03T03:41:21.827Z,7.93
2018-05-03T03:44:23.922Z,6.93
2018-05-03T03:45:26.440Z,7.00
2018-05-03T03:46:29.696Z,7.40
2018-05-03T03:47:32.194Z,7.53
2018-05-03T03:48:35.443Z,6.75
2018-05-03T03:49:37.944Z,7.20
2018-05-03T03:50:40.471Z,6.93
2018-05-03T03:51:42.971Z,6.93
2018-05-03T03:52:45.470Z,8.30
2018-05-03T03:53:48.721Z,7.95
2018-05-03T03:54:51.221Z,7.40
2018-05-03T03:55:54.511Z,8.40
2018-05-03T03:56:57.780Z,8.88
2018-05-03T03:58:00.286Z,8.70
2018-05-03T03:59:02.841Z,9.80
2018-05-03T04:00:05.285Z,9.40
2018-05-03T04:01:07.789Z,8.70
2018-05-03T04:02:11.297Z,9.02
2018-05-03T04:03:13.801Z,9.00
2018-05-03T04:04:16.286Z,9.32
2018-05-03T04:05:18.802Z,10.50
2018-05-03T04:06:21.297Z,9.85
2018-05-03T04:07:23.798Z,9.30
2018-05-03T04:08:26.348Z,9.63
2018-05-03T04:09:29.559Z,10.13
2018-05-03T04:10:32.070Z,10.68
2018-05-03T04:11:34.573Z,10.13
2018-05-03T04:12:37.071Z,10.68
2018-05-03T04:13:39.574Z,11.00
2018-05-03T04:14:42.064Z,11.18
2018-05-03T04:15:44.577Z,11.90
2018-05-03T04:16:47.104Z,11.50
2018-05-03T04:18:01.343Z,10.68
2018-05-03T04:19:15.661Z,11.23
2018-05-03T04:20:39.627Z,12.15
2018-05-03T04:21:54.167Z,11.90
2018-05-03T04:23:01.089Z,11.85
2018-05-03T04:25:55.517Z,11.10
2018-05-03T04:26:58.009Z,12.52
2018-05-03T04:28:00.511Z,12.50
2018-05-03T04:29:03.774Z,12.50
2018-05-03T04:30:06.295Z,12.30
2018-05-03T04:31:08.782Z,12.55
2018-05-03T04:32:11.437Z,12.98
2018-05-03T04:33:13.964Z,13.65
2018-05-03T04:34:16.474Z,13.73
2018-05-03T04:35:19.000Z,13.77
2018-05-03T04:36:21.526Z,13.82
2018-05-03T04:37:24.031Z,14.90
2018-05-03T04:38:26.554Z,15.00
2018-05-03T04:39:29.077Z,14.30
2018-05-03T04:40:31.595Z,15.35
2018-05-03T04:41:34.124Z,14.20
2018-05-03T04:42:36.636Z,15.80
2018-05-03T04:43:39.152Z,16.25
2018-05-03T04:44:41.654Z,16.67
2018-05-03T04:45:44.159Z,16.23
2018-05-03T04:46:46.663Z,15.70
2018-05-03T04:47:49.169Z,16.30
2018-05-03T04:48:51.672Z,16.10
2018-05-03T04:49:54.163Z,15.52
2018-05-03T04:50:56.664Z,16.08
2018-05-03T04:51:59.158Z,16.30
2018-05-03T04:53:02.416Z,14.50
2018-05-03T04:54:04.991Z,14.80
2018-05-03T04:55:07.444Z,15.38
2018-05-03T04:56:10.109Z,15.07
2018-05-03T04:57:12.613Z,15.77
2018-05-03T04:58:15.092Z,15.68
2018-05-03T04:59:18.366Z,15.02
2018-05-03T05:00:20.914Z,14.68
2018-05-03T05:01:23.417Z,13.23
2018-05-03T05:02:25.917Z,13.23
2018-05-03T05:03:28.406Z,13.95
2018-05-03T05:04:30.914Z,13.62
2018-05-03T05:05:33.631Z,13.48
2018-05-03T05:06:36.133Z,13.98
2018-05-03T05:07:38.624Z,13.35
2018-05-03T05:08:41.114Z,12.60
2018-05-03T05:09:44.384Z,13.45
2018-05-03T05:10:46.909Z,11.48
2018-05-03T05:11:49.415Z,12.77
2018-05-03T05:12:51.932Z,11.38
2018-05-03T05:13:55.186Z,12.05
2018-05-03T05:14:57.685Z,11.63
2018-05-03T05:16:00.972Z,11.98
2018-05-03T05:17:04.231Z,11.55
2018-05-03T05:18:07.497Z,11.50
2018-05-03T05:19:10.063Z,11.57
2018-05-03T05:20:12.661Z,10.10
2018-05-03T05:21:15.171Z,9.95
2018-05-03T05:22:17.663Z,10.80
2018-05-03T05:23:20.173Z,10.40
2018-05-03T05:24:22.693Z,9.52
2018-05-03T05:25:25.257Z,9.70
2018-05-03T05:26:27.771Z,10.90
2018-05-03T05:27:30.269Z,9.77
2018-05-03T05:28:33.540Z,10.05
2018-05-03T05:29:36.057Z,9.30
2018-05-03T05:30:38.619Z,10.38
2018-05-03T05:31:41.886Z,10.00
2018-05-03T05:32:44.396Z,8.95
2018-05-03T05:33:46.884Z,9.50
2018-05-03T05:34:49.388Z,9.85
2018-05-03T05:35:51.901Z,8.43
2018-05-03T05:36:54.417Z,8.63
2018-05-03T05:37:56.934Z,8.55
2018-05-03T05:38:59.447Z,8.40
2018-05-03T05:40:01.947Z,7.70
2018-05-03T05:41:05.218Z,7.15
2018-05-03T05:42:07.729Z,7.40
2018-05-03T05:43:11.199Z,7.50
2018-05-03T05:44:13.719Z,7.95
2018-05-03T05:45:16.206Z,7.25
2018-05-03T05:46:18.704Z,7.12
2018-05-03T05:47:21.204Z,7.47
2018-05-03T05:48:24.468Z,7.90
2018-05-03T05:49:26.965Z,6.82
2018-05-03T05:50:29.491Z,7.18
2018-05-03T05:51:31.999Z,6.20
2018-05-03T05:52:34.518Z,6.75
2018-05-03T05:53:37.020Z,7.30
2018-05-03T05:54:40.288Z,7.18
2018-05-03T05:55:42.798Z,6.90
2018-05-03T05:56:46.164Z,6.43
2018-05-03T05:57:49.345Z,5.80
2018-05-03T05:58:51.884Z,5.68
2018-05-03T05:59:54.389Z,6.07
2018-05-03T06:00:56.894Z,5.68
2018-05-03T06:01:59.388Z,5.25
2018-05-03T06:03:01.891Z,6.15
2018-05-03T06:04:04.409Z,4.60
2018-05-03T06:05:06.896Z,5.50
2018-05-03T06:06:09.394Z,5.47
2018-05-03T06:07:11.985Z,5.90
2018-05-03T06:08:14.495Z,4.50
2018-05-03T06:09:17.001Z,4.00
2018-05-03T06:10:19.580Z,4.10
2018-05-03T06:11:22.042Z,4.57
2018-05-03T06:12:24.591Z,3.83
2018-05-03T06:13:27.837Z,3.97
2018-05-03T06:14:31.138Z,4.45
2018-05-03T06:15:34.407Z,3.75
2018-05-03T06:16:36.928Z,3.70
2018-05-03T06:17:39.425Z,3.40
2018-05-03T06:18:41.940Z,4.18
2018-05-03T06:19:44.435Z,3.67
2018-05-03T06:20:46.961Z,3.50
2018-05-03T06:21:50.213Z,3.78
2018-05-03T06:22:52.725Z,3.80
2018-05-03T06:23:55.986Z,3.50
2018-05-03T06:24:58.510Z,3.30
2018-05-03T06:26:01.078Z,3.72
2018-05-03T06:27:03.493Z,3.40
2018-05-03T06:28:06.013Z,4.00
2018-05-03T06:29:08.536Z,3.62
2018-05-03T06:30:11.281Z,3.37
2018-05-03T06:31:13.790Z,3.28
2018-05-03T06:32:16.287Z,2.80
2018-05-03T06:33:18.788Z,3.20
2018-05-03T06:34:21.315Z,3.10
2018-05-03T06:35:24.573Z,3.30
2018-05-03T06:36:27.064Z,3.67
2018-05-03T06:37:29.573Z,2.70
2018-05-03T06:38:32.147Z,3.45
2018-05-03T06:39:34.752Z,3.90
2018-05-03T06:40:37.265Z,3.00
2018-05-03T06:41:40.529Z,2.70
2018-05-03T06:42:43.026Z,3.42
2018-05-03T06:43:45.532Z,3.33
2018-05-03T06:44:48.047Z,3.22
2018-05-03T06:45:50.548Z,2.62
2018-05-03T06:46:53.073Z,3.33
2018-05-03T06:47:55.637Z,2.90
2018-05-03T06:48:58.116Z,3.10
2018-05-03T06:50:00.694Z,3.15
2018-05-03T06:51:03.206Z,3.25
2018-05-03T06:52:05.697Z,2.85
2018-05-03T06:53:08.238Z,3.55
2018-05-03T06:54:10.870Z,2.25
2018-05-03T06:55:13.605Z,2.35
2018-05-03T06:56:16.106Z,3.10
2018-05-03T06:57:18.609Z,2.72
2018-05-03T06:58:21.877Z,3.30
2018-05-03T06:59:24.381Z,2.97
2018-05-03T07:00:27.679Z,3.63
2018-05-03T07:01:30.194Z,2.90
2018-05-03T07:02:32.694Z,2.87
2018-05-03T07:03:35.960Z,2.80
2018-05-03T07:04:38.492Z,2.57
2018-05-03T07:05:41.026Z,2.70
2018-05-03T07:06:44.298Z,2.70
2018-05-03T07:07:47.582Z,2.60
2018-05-03T07:08:50.072Z,2.37
2018-05-03T07:09:53.336Z,2.73
2018-05-03T07:10:55.858Z,2.83
2018-05-03T07:11:58.374Z,3.00
2018-05-03T07:13:00.867Z,2.33
2018-05-03T07:14:04.131Z,2.20
2018-05-03T07:15:06.648Z,2.57
2018-05-03T07:16:09.184Z,2.50
2018-05-03T07:17:11.825Z,2.27
2018-05-03T07:18:14.341Z,2.03
2018-05-03T07:19:16.856Z,2.50
2018-05-03T07:20:19.378Z,2.40
2018-05-03T07:21:22.670Z,2.23
2018-05-03T07:22:25.170Z,2.67
2018-05-03T07:23:27.757Z,2.53
2018-05-03T07:24:30.258Z,3.47
2018-05-03T07:25:32.779Z,2.97
2018-05-03T07:26:35.293Z,2.80
2018-05-03T07:27:37.825Z,2.30
2018-05-03T07:28:40.398Z,2.27
2018-05-03T07:29:42.896Z,2.70
2018-05-03T07:30:45.425Z,1.80
2018-05-03T07:31:48.705Z,2.67
2018-05-03T07:32:51.956Z,2.67
2018-05-03T07:33:54.462Z,2.73
2018-05-03T07:34:57.719Z,3.10
2018-05-03T07:36:00.221Z,2.50
2018-05-03T07:37:03.502Z,2.90
2018-05-03T07:38:05.999Z,2.47
2018-05-03T07:39:08.510Z,2.60
2018-05-03T07:40:11.209Z,2.83
2018-05-03T07:41:13.790Z,2.93
2018-05-03T07:42:17.057Z,2.50
2018-05-03T07:43:19.553Z,2.33
2018-05-03T07:44:22.808Z,2.50
2018-05-03T07:45:25.315Z,2.70
2018-05-03T07:46:28.584Z,2.43
2018-05-03T07:47:31.093Z,2.87
2018-05-03T07:48:33.670Z,2.70
2018-05-03T07:49:36.096Z,2.80
2018-05-03T07:50:38.626Z,2.43
2018-05-03T07:51:41.133Z,2.53
2018-05-03T07:52:43.645Z,2.60
2018-05-03T07:53:46.139Z,2.20
2018-05-03T07:54:48.625Z,3.00
2018-05-03T07:55:51.151Z,2.90
2018-05-03T07:56:53.658Z,3.07
2018-05-03T07:57:56.174Z,2.57
2018-05-03T07:58:59.436Z,2.20
2018-05-03T08:00:01.955Z,2.80
2018-05-03T08:01:04.459Z,3.00
2018-05-03T08:02:07.027Z,2.10
2018-05-03T08:03:09.530Z,2.43
2018-05-03T08:04:12.861Z,2.60
2018-05-03T08:05:15.375Z,2.53
2018-05-03T08:06:17.868Z,3.97
2018-05-03T08:07:20.374Z,2.83
2018-05-03T08:08:22.905Z,3.13
2018-05-03T08:09:26.199Z,2.23
2018-05-03T08:10:29.497Z,3.93
2018-05-03T08:11:32.785Z,4.13
2018-05-03T08:12:36.104Z,2.83
2018-05-03T08:13:38.667Z,3.40
2018-05-03T08:14:41.169Z,3.00
2018-05-03T08:15:43.682Z,3.17
2018-05-03T08:16:46.954Z,3.13
2018-05-03T08:17:49.477Z,3.10
2018-05-03T08:18:52.001Z,2.47
2018-05-03T08:19:55.275Z,3.63
2018-05-03T08:20:57.796Z,2.77
2018-05-03T08:22:00.318Z,3.47
2018-05-03T08:23:02.827Z,2.60
2018-05-03T08:24:05.345Z,3.33
2018-05-03T08:25:07.864Z,3.10
2018-05-03T08:26:10.588Z,3.30
2018-05-03T08:27:13.240Z,3.70
2018-05-03T08:28:15.731Z,3.37
2018-05-03T08:29:18.237Z,3.17
2018-05-03T08:30:21.527Z,3.93
2018-05-03T08:31:24.791Z,3.43
2018-05-03T08:32:27.293Z,3.83
2018-05-03T08:33:30.577Z,3.43
2018-05-03T08:34:33.841Z,3.67
2018-05-03T08:35:36.350Z,4.00
2018-05-03T08:36:38.848Z,3.37
2018-05-03T08:37:41.341Z,3.40
2018-05-03T08:38:45.357Z,2.60
2018-05-03T08:39:47.871Z,3.33
2018-05-03T08:40:50.380Z,4.27
2018-05-03T08:41:52.884Z,3.30
2018-05-03T08:42:56.156Z,2.90
2018-05-03T08:43:58.657Z,2.80
2018-05-03T08:45:02.090Z,3.47
2018-05-03T08:46:04.592Z,3.23
2018-05-03T08:47:07.097Z,3.60
2018-05-03T08:48:09.610Z,3.23
2018-05-03T08:49:12.157Z,3.13
2018-05-03T08:50:14.720Z,3.87
2018-05-03T08:51:17.232Z,3.27
2018-05-03T08:52:19.721Z,3.90
2018-05-03T08:53:23.009Z,3.40
2018-05-03T08:54:25.525Z,4.80
2018-05-03T08:55:28.075Z,3.53
2018-05-03T08:56:31.325Z,3.53
2018-05-03T08:57:33.826Z,3.10
2018-05-03T08:58:37.075Z,3.30
2018-05-03T08:59:39.581Z,3.77
2018-05-03T09:00:42.866Z,3.23
2018-05-03T09:01:46.198Z,4.00
2018-05-03T09:02:50.136Z,3.43
2018-05-03T09:03:52.641Z,2.70
2018-05-03T09:04:55.933Z,3.07
2018-05-03T09:05:59.232Z,2.47
2018-05-03T09:07:01.714Z,3.07
2018-05-03T09:08:04.200Z,3.10
2018-05-03T09:09:06.689Z,2.77
2018-05-03T09:10:09.217Z,2.67
2018-05-03T09:11:11.809Z,2.80
2018-05-03T09:12:14.309Z,2.40
2018-05-03T09:13:16.806Z,3.13
2018-05-03T09:14:19.288Z,2.80
2018-05-03T09:15:21.815Z,3.20
2018-05-03T09:16:24.313Z,3.20
2018-05-03T09:17:27.568Z,3.30
2018-05-03T09:18:30.073Z,3.03
2018-05-03T09:19:33.348Z,3.13
2018-05-03T09:20:35.872Z,2.87
2018-05-03T09:21:38.361Z,3.00
2018-05-03T09:22:40.894Z,2.80
2018-05-03T09:23:43.382Z,2.70
2018-05-03T09:24:45.869Z,3.13
2018-05-03T09:25:48.420Z,4.30
2018-05-03T09:26:50.952Z,2.60
2018-05-03T09:27:53.442Z,2.85
2018-05-03T09:28:56.001Z,2.97
2018-05-03T09:29:58.510Z,2.97
2018-05-03T09:31:01.033Z,3.00
2018-05-03T09:32:04.287Z,2.70
2018-05-03T09:33:06.776Z,3.05
2018-05-03T09:34:09.296Z,3.00
2018-05-03T09:35:11.930Z,3.60
2018-05-03T09:36:15.200Z,3.37
2018-05-03T09:37:17.692Z,2.50
2018-05-03T09:38:20.965Z,2.90
2018-05-03T09:39:23.460Z,3.40
2018-05-03T09:40:25.986Z,2.70
2018-05-03T09:41:28.515Z,2.33
2018-05-03T09:42:31.016Z,2.50
2018-05-03T09:43:33.503Z,2.37
2018-05-03T09:44:35.992Z,2.40
2018-05-03T09:45:39.276Z,2.50
2018-05-03T09:46:41.795Z,2.13
2018-05-03T09:47:44.301Z,2.23
2018-05-03T09:48:46.829Z,2.17
2018-05-03T09:49:49.331Z,2.30
2018-05-03T09:50:51.825Z,1.80
2018-05-03T09:51:54.347Z,2.13
2018-05-03T09:52:56.906Z,2.80
2018-05-03T09:53:59.403Z,2.57
2018-05-03T09:55:01.912Z,2.90
2018-05-03T09:56:04.420Z,2.60
2018-05-03T09:57:06.943Z,2.60
2018-05-03T09:58:09.459Z,3.17
2018-05-03T09:59:12.020Z,2.10
2018-05-03T10:00:15.288Z,2.73
2018-05-03T10:01:17.786Z,2.23
2018-05-03T10:02:20.306Z,2.57
2018-05-03T10:03:22.790Z,2.03
2018-05-03T10:04:25.280Z,2.97
2018-05-03T10:05:27.814Z,2.43
2018-05-03T10:06:30.757Z,2.70
2018-05-03T10:07:33.278Z,3.00
2018-05-03T10:08:35.800Z,2.57
2018-05-03T10:09:38.297Z,2.60
2018-05-03T10:10:40.822Z,2.57
2018-05-03T10:11:43.407Z,3.08
2018-05-03T10:12:45.911Z,2.47
2018-05-03T10:13:48.401Z,2.50
2018-05-03T10:14:50.905Z,2.53
2018-05-03T10:15:54.202Z,3.00
2018-05-03T10:16:56.735Z,2.70
2018-05-03T10:17:59.349Z,2.00
2018-05-03T10:19:01.851Z,3.00
2018-05-03T10:20:04.354Z,2.72
2018-05-03T10:21:06.850Z,2.75
2018-05-03T10:22:09.443Z,2.75
2018-05-03T10:23:11.995Z,2.47
2018-05-03T10:24:14.495Z,2.47
2018-05-03T10:25:17.019Z,2.60
2018-05-03T10:26:20.292Z,2.30
2018-05-03T10:27:23.549Z,2.28
2018-05-03T10:28:26.060Z,2.65
2018-05-03T10:29:28.556Z,2.92
2018-05-03T10:30:31.067Z,2.15
2018-05-03T10:31:33.578Z,3.05
2018-05-03T10:32:36.095Z,2.80
2018-05-03T10:33:38.587Z,2.80
2018-05-03T10:34:41.131Z,2.40
2018-05-03T10:35:43.704Z,2.62
2018-05-03T10:36:46.952Z,2.40
2018-05-03T10:37:50.261Z,3.20
2018-05-03T10:38:52.770Z,2.17
2018-05-03T10:39:55.262Z,2.30
2018-05-03T10:40:58.571Z,2.92
2018-05-03T10:42:01.899Z,2.20
2018-05-03T10:43:04.386Z,2.35
2018-05-03T10:44:06.872Z,2.33
2018-05-03T10:45:09.434Z,2.50
2018-05-03T10:46:12.295Z,2.30
2018-05-03T10:47:14.805Z,2.30
2018-05-03T10:48:17.325Z,2.53
2018-05-03T10:49:19.851Z,2.60
2018-05-03T10:50:22.357Z,2.30
2018-05-03T10:51:24.878Z,2.45
2018-05-03T10:52:27.396Z,2.33
2018-05-03T10:53:29.931Z,2.37
2018-05-03T10:54:32.425Z,2.62
2018-05-03T10:55:35.693Z,2.40
2018-05-03T10:56:38.179Z,2.67
2018-05-03T10:57:41.448Z,2.30
2018-05-03T10:58:43.990Z,2.12
2018-05-03T10:59:46.515Z,1.85
2018-05-03T11:00:49.788Z,2.78
2018-05-03T11:01:53.059Z,3.00
2018-05-03T11:02:55.567Z,2.50
2018-05-03T11:03:58.078Z,2.60
2018-05-03T11:05:00.589Z,2.62
2018-05-03T11:06:03.845Z,2.87
2018-05-03T11:07:06.345Z,2.25
2018-05-03T11:08:09.673Z,2.97
2018-05-03T11:09:12.272Z,2.45
2018-05-03T11:10:14.801Z,2.10
2018-05-03T11:11:17.278Z,2.37
2018-05-03T11:12:19.944Z,1.85
2018-05-03T11:13:22.457Z,2.30
2018-05-03T11:14:24.977Z,2.00
2018-05-03T11:15:27.484Z,2.10
2018-05-03T11:16:29.970Z,1.83
2018-05-03T11:17:32.468Z,1.98
2018-05-03T11:18:35.754Z,1.90
2018-05-03T11:19:38.248Z,2.30
2018-05-03T11:20:40.755Z,2.40
2018-05-03T11:21:43.325Z,2.78
2018-05-03T11:22:46.546Z,2.10
2018-05-03T11:23:49.042Z,3.37
2018-05-03T11:24:52.321Z,4.05
2018-05-03T11:25:55.614Z,2.53
2018-05-03T11:26:58.873Z,2.70
2018-05-03T11:28:01.361Z,2.47
2018-05-03T11:29:03.867Z,3.28
2018-05-03T11:30:06.422Z,2.80
2018-05-03T11:31:09.728Z,2.50
2018-05-03T11:32:12.350Z,2.53
2018-05-03T11:33:14.858Z,2.70
2018-05-03T11:34:18.128Z,3.20
2018-05-03T11:35:20.665Z,2.70
2018-05-03T11:36:23.173Z,2.78
2018-05-03T11:37:26.440Z,2.80
2018-05-03T11:38:28.957Z,3.05
2018-05-03T11:39:31.454Z,3.17
2018-05-03T11:40:33.982Z,2.58
2018-05-03T11:41:37.247Z,2.90
2018-05-03T11:42:39.786Z,2.85
2018-05-03T11:43:42.268Z,2.67
2018-05-03T11:44:44.763Z,2.95
2018-05-03T11:45:47.306Z,3.17
2018-05-03T11:46:49.793Z,2.40
2018-05-03T11:47:52.284Z,3.33
2018-05-03T11:48:55.564Z,2.92
2018-05-03T11:49:58.054Z,2.70
2018-05-03T11:51:00.565Z,2.60
2018-05-03T11:52:03.076Z,3.03
2018-05-03T11:53:06.340Z,3.00
2018-05-03T11:54:08.838Z,2.62
2018-05-03T11:55:12.500Z,2.37
2018-05-03T11:56:15.031Z,2.55
2018-05-03T11:57:17.544Z,2.60
2018-05-03T11:58:20.051Z,3.22
2018-05-03T11:59:23.325Z,2.40
2018-05-03T12:00:25.836Z,2.40
2018-05-03T12:01:28.377Z,2.35
2018-05-03T12:02:31.736Z,3.70
2018-05-03T12:03:34.169Z,2.90
2018-05-03T12:04:36.664Z,2.12
2018-05-03T12:05:39.164Z,3.65
2018-05-03T12:06:41.658Z,3.35
2018-05-03T12:07:44.151Z,2.40
2018-05-03T12:08:46.642Z,3.00
2018-05-03T12:09:49.135Z,3.30
2018-05-03T12:10:51.641Z,2.50
2018-05-03T12:11:54.156Z,2.50
2018-05-03T12:12:56.668Z,2.90
2018-05-03T12:13:59.979Z,3.33
2018-05-03T12:15:02.500Z,2.85
2018-05-03T12:16:05.030Z,3.37
2018-05-03T12:17:07.533Z,2.95
2018-05-03T12:18:10.304Z,2.30
2018-05-03T12:19:13.016Z,3.15
2018-05-03T12:20:16.300Z,2.37
2018-05-03T12:21:18.823Z,2.92
2018-05-03T12:22:21.333Z,3.15
2018-05-03T12:23:23.854Z,2.85
2018-05-03T12:24:26.372Z,3.22
2018-05-03T12:25:28.912Z,3.40
2018-05-03T12:26:31.481Z,2.92
2018-05-03T12:27:34.011Z,3.22
2018-05-03T12:28:37.273Z,3.65
2018-05-03T12:29:40.703Z,3.22
2018-05-03T12:30:43.232Z,3.30
2018-05-03T12:31:45.757Z,3.10
2018-05-03T12:32:49.162Z,2.85
2018-05-03T12:33:51.815Z,2.83
2018-05-03T12:34:54.657Z,3.00
2018-05-03T12:35:57.128Z,2.95
2018-05-03T12:37:01.138Z,2.60
2018-05-03T12:38:03.882Z,2.42
2018-05-03T12:39:06.730Z,2.80
2018-05-03T12:40:09.307Z,2.60
2018-05-03T12:41:12.074Z,3.15
2018-05-03T12:42:14.852Z,2.60
2018-05-03T12:43:17.392Z,2.58
2018-05-03T12:44:20.654Z,3.05
2018-05-03T12:45:23.158Z,2.85
2018-05-03T12:46:26.413Z,2.55
2018-05-03T12:47:28.913Z,2.58
2018-05-03T12:48:32.189Z,2.45
2018-05-03T12:49:34.751Z,2.75
2018-05-03T12:50:37.296Z,2.92
2018-05-03T12:51:39.820Z,2.62
2018-05-03T12:52:43.097Z,2.83
2018-05-03T12:53:45.601Z,3.15
2018-05-03T12:54:48.110Z,2.65
2018-05-03T12:55:50.655Z,3.20
2018-05-03T12:56:53.164Z,3.37
2018-05-03T12:57:55.685Z,3.20
2018-05-03T12:58:58.172Z,2.80
2018-05-03T13:00:00.684Z,2.95
2018-05-03T13:01:03.965Z,3.20
2018-05-03T13:02:07.226Z,2.80
2018-05-03T13:03:09.874Z,3.20
2018-05-03T13:04:12.458Z,2.85
2018-05-03T13:05:14.978Z,2.83
2018-05-03T13:06:17.496Z,2.35
2018-05-03T13:07:20.027Z,2.80
2018-05-03T13:08:23.336Z,2.85
2018-05-03T13:09:26.601Z,3.25
2018-05-03T13:10:29.133Z,2.85
2018-05-03T13:11:31.659Z,3.15
2018-05-03T13:12:34.947Z,2.62
2018-05-03T13:13:38.236Z,3.25
2018-05-03T13:14:41.501Z,4.10
2018-05-03T13:15:44.018Z,3.28
2018-05-03T13:16:46.524Z,3.30
2018-05-03T13:17:49.058Z,3.65
2018-05-03T13:18:51.599Z,2.90
2018-05-03T13:19:54.901Z,3.40
2018-05-03T13:20:58.160Z,3.22
2018-05-03T13:22:00.646Z,3.50
2018-05-03T13:23:03.917Z,3.05
2018-05-03T13:24:06.438Z,3.50
2018-05-03T13:25:08.967Z,3.00
2018-05-03T13:26:11.503Z,3.40
2018-05-03T13:27:13.983Z,3.03
2018-05-03T13:28:16.460Z,3.40
2018-05-03T13:29:18.967Z,3.45
2018-05-03T13:30:21.522Z,3.03
2018-05-03T13:31:24.025Z,3.58
2018-05-03T13:32:26.535Z,3.70
2018-05-03T13:33:29.044Z,3.15
2018-05-03T13:34:32.447Z,3.30
2018-05-03T13:35:35.728Z,3.90
2018-05-03T13:36:38.988Z,3.60
2018-05-03T13:37:41.471Z,3.30
2018-05-03T13:38:43.997Z,3.53
2018-05-03T13:39:46.533Z,3.25
2018-05-03T13:40:49.817Z,3.42
2018-05-03T13:41:52.351Z,3.08
2018-05-03T13:42:54.885Z,2.90
2018-05-03T13:43:57.390Z,4.37
2018-05-03T13:44:59.925Z,3.70
2018-05-03T13:46:02.439Z,3.50
2018-05-03T13:47:04.942Z,3.70
2018-05-03T13:48:08.221Z,3.10
2018-05-03T13:49:11.658Z,2.85
2018-05-03T13:50:14.173Z,3.00
2018-05-03T13:51:16.686Z,3.42
2018-05-03T13:52:19.204Z,3.10
2018-05-03T13:53:21.796Z,3.62
2018-05-03T13:54:24.308Z,3.53
2018-05-03T13:55:26.876Z,2.95
2018-05-03T13:56:29.345Z,2.92
2018-05-03T13:57:31.857Z,2.90
2018-05-03T13:58:34.369Z,3.05
2018-05-03T13:59:36.869Z,3.55
2018-05-03T14:00:39.439Z,3.17
2018-05-03T14:01:41.937Z,2.97
2018-05-03T14:02:44.419Z,2.78
2018-05-03T14:03:46.926Z,3.30
2018-05-03T14:04:49.467Z,3.22
2018-05-03T14:05:52.050Z,3.03
2018-05-03T14:06:55.498Z,2.97
2018-05-03T14:07:58.018Z,2.90
2018-05-03T14:09:01.320Z,3.08
2018-05-03T14:10:03.870Z,3.15
2018-05-03T14:11:06.507Z,2.12
2018-05-03T14:12:09.019Z,3.10
2018-05-03T14:13:12.273Z,3.30
2018-05-03T14:14:14.763Z,2.90
2018-05-03T14:15:18.084Z,2.70